sensor_id;sensor_type;location;lat;lon;timestamp;temperature;humidity
71084;DHT22;58741;52.672;13.548;2022-11-20T00:01:11;0.80;99.90
71084;DHT22;58741;52.672;13.548;2022-11-20T00:03:37;0.80;99.90
71084;DHT22;58741;52.672;13.548;2022-11-20T00:06:04;0.80;99.90
71084;DHT22;58741;52.672;13.548;2022-11-20T00:08:30;0.80;99.90
71084;DHT22;58741;52.672;13.548;2022-11-20T00:10:56;0.70;99.90
71084;DHT22;58741;52.672;13.548;2022-11-20T00:13:22;0.70;99.90
71084;DHT22;58741;52.672;13.548;2022-11-20T00:15:47;0.70;99.90
71084;DHT22;58741;52.672;13.548;2022-11-20T00:18:13;0.70;99.90
71084;DHT22;58741;52.672;13.548;2022-11-20T00:20:38;0.70;99.90
71084;DHT22;58741;52.672;13.548;2022-11-20T00:23:04;0.70;99.90
71084;DHT22;58741;52.672;13.548;2022-11-20T00:25:31;0.70;99.90
71084;DHT22;58741;52.672;13.548;2022-11-20T00:27:56;0.70;99.90
71084;DHT22;58741;52.672;13.548;2022-11-20T00:30:22;0.70;99.90
71084;DHT22;58741;52.672;13.548;2022-11-20T00:32:47;0.70;99.90
71084;DHT22;58741;52.672;13.548;2022-11-20T00:35:13;0.70;99.90
71084;DHT22;58741;52.672;13.548;2022-11-20T00:37:38;0.70;99.90
71084;DHT22;58741;52.672;13.548;2022-11-20T00:40:04;0.70;99.90
71084;DHT22;58741;52.672;13.548;2022-11-20T00:42:30;0.70;99.90
71084;DHT22;58741;52.672;13.548;2022-11-20T00:44:58;0.70;99.90
71084;DHT22;58741;52.672;13.548;2022-11-20T00:47:23;0.70;99.90
71084;DHT22;58741;52.672;13.548;2022-11-20T00:49:49;0.70;99.90
71084;DHT22;58741;52.672;13.548;2022-11-20T00:52:14;0.70;99.90
71084;DHT22;58741;52.672;13.548;2022-11-20T00:54:40;0.60;99.90
71084;DHT22;58741;52.672;13.548;2022-11-20T00:57:05;0.60;99.90
71084;DHT22;58741;52.672;13.548;2022-11-20T00:59:31;0.60;99.90
71084;DHT22;58741;52.672;13.548;2022-11-20T01:01:56;0.60;99.90
71084;DHT22;58741;52.672;13.548;2022-11-20T01:04:22;0.60;99.90
71084;DHT22;58741;52.672;13.548;2022-11-20T01:06:47;0.60;99.90
71084;DHT22;58741;52.672;13.548;2022-11-20T01:09:14;0.50;99.90
71084;DHT22;58741;52.672;13.548;2022-11-20T01:11:42;0.50;99.90
71084;DHT22;58741;52.672;13.548;2022-11-20T01:14:14;0.50;99.90
71084;DHT22;58741;52.672;13.548;2022-11-20T01:16:43;0.50;99.90
71084;DHT22;58741;52.672;13.548;2022-11-20T01:19:18;0.50;99.90
71084;DHT22;58741;52.672;13.548;2022-11-20T01:21:45;0.50;99.90
71084;DHT22;58741;52.672;13.548;2022-11-20T01:24:13;0.50;99.90
71084;DHT22;58741;52.672;13.548;2022-11-20T01:26:40;0.50;99.90
71084;DHT22;58741;52.672;13.548;2022-11-20T01:29:08;0.50;99.90
71084;DHT22;58741;52.672;13.548;2022-11-20T01:31:36;0.50;99.90
71084;DHT22;58741;52.672;13.548;2022-11-20T01:34:05;0.50;99.90
71084;DHT22;58741;52.672;13.548;2022-11-20T01:36:32;0.50;99.90
71084;DHT22;58741;52.672;13.548;2022-11-20T01:39:00;0.50;99.90
71084;DHT22;58741;52.672;13.548;2022-11-20T01:41:28;0.50;99.90
71084;DHT22;58741;52.672;13.548;2022-11-20T01:44:16;0.50;99.90
71084;DHT22;58741;52.672;13.548;2022-11-20T01:47:00;0.50;99.90
71084;DHT22;58741;52.672;13.548;2022-11-20T01:49:34;0.40;99.90
71084;DHT22;58741;52.672;13.548;2022-11-20T01:52:05;0.40;99.90
71084;DHT22;58741;52.672;13.548;2022-11-20T01:54:39;0.40;99.90
71084;DHT22;58741;52.672;13.548;2022-11-20T01:57:09;0.40;99.90
71084;DHT22;58741;52.672;13.548;2022-11-20T01:59:41;0.40;99.90
71084;DHT22;58741;52.672;13.548;2022-11-20T02:02:09;0.40;99.90
71084;DHT22;58741;52.672;13.548;2022-11-20T02:04:34;0.40;99.90
71084;DHT22;58741;52.672;13.548;2022-11-20T02:07:01;0.30;99.90
71084;DHT22;58741;52.672;13.548;2022-11-20T02:09:28;0.30;99.90
71084;DHT22;58741;52.672;13.548;2022-11-20T02:11:54;0.30;99.90
71084;DHT22;58741;52.672;13.548;2022-11-20T02:14:21;0.40;99.90
71084;DHT22;58741;52.672;13.548;2022-11-20T02:16:48;0.40;99.90
71084;DHT22;58741;52.672;13.548;2022-11-20T02:22:05;0.30;99.90
71084;DHT22;58741;52.672;13.548;2022-11-20T02:24:34;0.40;99.90
71084;DHT22;58741;52.672;13.548;2022-11-20T02:27:03;0.40;99.90
71084;DHT22;58741;52.672;13.548;2022-11-20T02:29:54;0.40;99.90
71084;DHT22;58741;52.672;13.548;2022-11-20T02:32:29;0.40;99.90
71084;DHT22;58741;52.672;13.548;2022-11-20T02:34:55;0.40;99.90
71084;DHT22;58741;52.672;13.548;2022-11-20T02:37:22;0.40;99.90
71084;DHT22;58741;52.672;13.548;2022-11-20T02:39:50;0.40;99.90
71084;DHT22;58741;52.672;13.548;2022-11-20T02:42:16;0.40;99.90
71084;DHT22;58741;52.672;13.548;2022-11-20T02:44:42;0.40;99.90
71084;DHT22;58741;52.672;13.548;2022-11-20T02:47:08;0.40;99.90
71084;DHT22;58741;52.672;13.548;2022-11-20T02:49:33;0.40;99.90
71084;DHT22;58741;52.672;13.548;2022-11-20T02:51:59;0.40;99.90
71084;DHT22;58741;52.672;13.548;2022-11-20T02:54:25;0.40;99.90
71084;DHT22;58741;52.672;13.548;2022-11-20T02:56:51;0.40;99.90
71084;DHT22;58741;52.672;13.548;2022-11-20T02:59:16;0.40;99.90
71084;DHT22;58741;52.672;13.548;2022-11-20T03:01:42;0.50;99.90
71084;DHT22;58741;52.672;13.548;2022-11-20T03:04:07;0.50;99.90
71084;DHT22;58741;52.672;13.548;2022-11-20T03:06:33;0.50;99.90
71084;DHT22;58741;52.672;13.548;2022-11-20T03:08:59;0.50;99.90
71084;DHT22;58741;52.672;13.548;2022-11-20T03:11:25;0.50;99.90
71084;DHT22;58741;52.672;13.548;2022-11-20T03:13:50;0.50;99.90
71084;DHT22;58741;52.672;13.548;2022-11-20T03:16:18;0.50;99.90
71084;DHT22;58741;52.672;13.548;2022-11-20T03:18:44;0.50;99.90
71084;DHT22;58741;52.672;13.548;2022-11-20T03:21:11;0.50;99.90
71084;DHT22;58741;52.672;13.548;2022-11-20T03:23:38;0.50;99.90
71084;DHT22;58741;52.672;13.548;2022-11-20T03:28:34;0.50;99.90
71084;DHT22;58741;52.672;13.548;2022-11-20T03:31:06;0.50;99.90
71084;DHT22;58741;52.672;13.548;2022-11-20T03:33:32;0.50;99.90
71084;DHT22;58741;52.672;13.548;2022-11-20T03:36:02;0.50;99.90
71084;DHT22;58741;52.672;13.548;2022-11-20T03:38:29;0.50;99.90
71084;DHT22;58741;52.672;13.548;2022-11-20T03:41:04;0.50;99.90
71084;DHT22;58741;52.672;13.548;2022-11-20T03:43:30;0.50;99.90
71084;DHT22;58741;52.672;13.548;2022-11-20T03:45:56;0.50;99.90
71084;DHT22;58741;52.672;13.548;2022-11-20T03:48:22;0.50;99.90
71084;DHT22;58741;52.672;13.548;2022-11-20T03:50:47;0.50;99.90
71084;DHT22;58741;52.672;13.548;2022-11-20T03:53:16;0.50;99.90
71084;DHT22;58741;52.672;13.548;2022-11-20T03:55:42;0.50;99.90
71084;DHT22;58741;52.672;13.548;2022-11-20T03:58:09;0.50;99.90
71084;DHT22;58741;52.672;13.548;2022-11-20T04:00:34;0.50;99.90
71084;DHT22;58741;52.672;13.548;2022-11-20T04:03:01;0.50;99.90
71084;DHT22;58741;52.672;13.548;2022-11-20T04:05:27;0.50;99.90
71084;DHT22;58741;52.672;13.548;2022-11-20T04:07:53;0.50;99.90
71084;DHT22;58741;52.672;13.548;2022-11-20T04:10:19;0.50;99.90
71084;DHT22;58741;52.672;13.548;2022-11-20T04:12:44;0.50;99.90
71084;DHT22;58741;52.672;13.548;2022-11-20T04:15:10;0.50;99.90
71084;DHT22;58741;52.672;13.548;2022-11-20T04:17:36;0.50;99.90
71084;DHT22;58741;52.672;13.548;2022-11-20T04:20:01;0.50;99.90
71084;DHT22;58741;52.672;13.548;2022-11-20T04:22:27;0.50;99.90
71084;DHT22;58741;52.672;13.548;2022-11-20T04:24:53;0.50;99.90
71084;DHT22;58741;52.672;13.548;2022-11-20T04:27:19;0.50;99.90
71084;DHT22;58741;52.672;13.548;2022-11-20T04:29:44;0.50;99.90
71084;DHT22;58741;52.672;13.548;2022-11-20T04:32:10;0.50;99.90
71084;DHT22;58741;52.672;13.548;2022-11-20T04:34:35;0.50;99.90
71084;DHT22;58741;52.672;13.548;2022-11-20T04:37:01;0.50;99.90
71084;DHT22;58741;52.672;13.548;2022-11-20T04:39:26;0.50;99.90
71084;DHT22;58741;52.672;13.548;2022-11-20T04:41:52;0.50;99.90
71084;DHT22;58741;52.672;13.548;2022-11-20T04:44:38;0.50;99.90
71084;DHT22;58741;52.672;13.548;2022-11-20T04:47:03;0.50;99.90
71084;DHT22;58741;52.672;13.548;2022-11-20T04:49:29;0.50;99.90
71084;DHT22;58741;52.672;13.548;2022-11-20T04:51:57;0.50;99.90
71084;DHT22;58741;52.672;13.548;2022-11-20T04:54:22;0.50;99.90
71084;DHT22;58741;52.672;13.548;2022-11-20T04:56:48;0.50;99.90
71084;DHT22;58741;52.672;13.548;2022-11-20T04:59:14;0.40;99.90
71084;DHT22;58741;52.672;13.548;2022-11-20T05:01:40;0.50;99.90
71084;DHT22;58741;52.672;13.548;2022-11-20T05:04:05;0.40;99.90
71084;DHT22;58741;52.672;13.548;2022-11-20T05:06:31;0.50;99.90
71084;DHT22;58741;52.672;13.548;2022-11-20T05:08:57;0.40;99.90
71084;DHT22;58741;52.672;13.548;2022-11-20T05:11:23;0.40;99.90
71084;DHT22;58741;52.672;13.548;2022-11-20T05:13:49;0.40;99.90
71084;DHT22;58741;52.672;13.548;2022-11-20T05:16:18;0.40;99.90
71084;DHT22;58741;52.672;13.548;2022-11-20T05:18:44;0.40;99.90
71084;DHT22;58741;52.672;13.548;2022-11-20T05:21:10;0.40;99.90
71084;DHT22;58741;52.672;13.548;2022-11-20T05:23:37;0.40;99.90
71084;DHT22;58741;52.672;13.548;2022-11-20T05:26:04;0.40;99.90
71084;DHT22;58741;52.672;13.548;2022-11-20T05:28:30;0.40;99.90
71084;DHT22;58741;52.672;13.548;2022-11-20T05:31:03;0.40;99.90
71084;DHT22;58741;52.672;13.548;2022-11-20T05:33:29;0.30;99.90
71084;DHT22;58741;52.672;13.548;2022-11-20T05:35:58;0.30;99.90
71084;DHT22;58741;52.672;13.548;2022-11-20T05:38:24;0.30;99.90
71084;DHT22;58741;52.672;13.548;2022-11-20T05:40:49;0.30;99.90
71084;DHT22;58741;52.672;13.548;2022-11-20T05:43:15;0.30;99.90
71084;DHT22;58741;52.672;13.548;2022-11-20T05:45:40;0.30;99.90
71084;DHT22;58741;52.672;13.548;2022-11-20T05:48:06;0.30;99.90
71084;DHT22;58741;52.672;13.548;2022-11-20T05:50:31;0.30;99.90
71084;DHT22;58741;52.672;13.548;2022-11-20T05:52:58;0.30;99.90
71084;DHT22;58741;52.672;13.548;2022-11-20T05:55:25;0.30;99.90
71084;DHT22;58741;52.672;13.548;2022-11-20T05:57:52;0.30;99.90
71084;DHT22;58741;52.672;13.548;2022-11-20T06:00:19;0.30;99.90
71084;DHT22;58741;52.672;13.548;2022-11-20T06:02:45;0.30;99.90
71084;DHT22;58741;52.672;13.548;2022-11-20T06:05:11;0.20;99.90
71084;DHT22;58741;52.672;13.548;2022-11-20T06:07:36;0.20;99.90
71084;DHT22;58741;52.672;13.548;2022-11-20T06:10:02;0.20;99.90
71084;DHT22;58741;52.672;13.548;2022-11-20T06:12:28;0.20;99.90
71084;DHT22;58741;52.672;13.548;2022-11-20T06:14:56;0.20;99.90
71084;DHT22;58741;52.672;13.548;2022-11-20T06:17:21;0.20;99.90
71084;DHT22;58741;52.672;13.548;2022-11-20T06:19:47;0.20;99.90
71084;DHT22;58741;52.672;13.548;2022-11-20T06:22:12;0.20;99.90
71084;DHT22;58741;52.672;13.548;2022-11-20T06:24:38;0.20;99.90
71084;DHT22;58741;52.672;13.548;2022-11-20T06:27:03;0.20;99.90
71084;DHT22;58741;52.672;13.548;2022-11-20T06:29:29;0.20;99.90
71084;DHT22;58741;52.672;13.548;2022-11-20T06:31:54;0.20;99.90
71084;DHT22;58741;52.672;13.548;2022-11-20T06:34:20;0.20;99.90
71084;DHT22;58741;52.672;13.548;2022-11-20T06:36:46;0.20;99.90
71084;DHT22;58741;52.672;13.548;2022-11-20T06:39:11;0.20;99.90
71084;DHT22;58741;52.672;13.548;2022-11-20T06:41:37;0.20;99.90
71084;DHT22;58741;52.672;13.548;2022-11-20T06:44:04;0.20;99.90
71084;DHT22;58741;52.672;13.548;2022-11-20T06:46:31;0.20;99.90
71084;DHT22;58741;52.672;13.548;2022-11-20T06:48:57;0.20;99.90
71084;DHT22;58741;52.672;13.548;2022-11-20T06:51:23;0.20;99.90
71084;DHT22;58741;52.672;13.548;2022-11-20T06:53:49;0.20;99.90
71084;DHT22;58741;52.672;13.548;2022-11-20T06:56:14;0.20;99.90
71084;DHT22;58741;52.672;13.548;2022-11-20T06:58:40;0.20;99.90
71084;DHT22;58741;52.672;13.548;2022-11-20T07:01:10;0.20;99.90
71084;DHT22;58741;52.672;13.548;2022-11-20T07:03:36;0.20;99.90
71084;DHT22;58741;52.672;13.548;2022-11-20T07:06:02;0.20;99.90
71084;DHT22;58741;52.672;13.548;2022-11-20T07:08:28;0.20;99.90
71084;DHT22;58741;52.672;13.548;2022-11-20T07:11:01;0.20;99.90
71084;DHT22;58741;52.672;13.548;2022-11-20T07:13:27;0.20;99.90
71084;DHT22;58741;52.672;13.548;2022-11-20T07:15:53;0.20;99.90
71084;DHT22;58741;52.672;13.548;2022-11-20T07:18:19;0.30;99.90
71084;DHT22;58741;52.672;13.548;2022-11-20T07:20:45;0.30;99.90
71084;DHT22;58741;52.672;13.548;2022-11-20T07:23:10;0.30;99.90
71084;DHT22;58741;52.672;13.548;2022-11-20T07:25:36;0.30;99.90
71084;DHT22;58741;52.672;13.548;2022-11-20T07:28:01;0.30;99.90
71084;DHT22;58741;52.672;13.548;2022-11-20T07:30:28;0.30;99.90
71084;DHT22;58741;52.672;13.548;2022-11-20T07:32:54;0.30;99.90
71084;DHT22;58741;52.672;13.548;2022-11-20T07:35:21;0.30;99.90
71084;DHT22;58741;52.672;13.548;2022-11-20T07:37:47;0.40;99.90
71084;DHT22;58741;52.672;13.548;2022-11-20T07:40:14;0.40;99.90
71084;DHT22;58741;52.672;13.548;2022-11-20T07:42:47;0.40;99.90
71084;DHT22;58741;52.672;13.548;2022-11-20T07:45:14;0.40;99.90
71084;DHT22;58741;52.672;13.548;2022-11-20T07:47:39;0.40;99.90
71084;DHT22;58741;52.672;13.548;2022-11-20T07:50:05;0.50;99.90
71084;DHT22;58741;52.672;13.548;2022-11-20T07:52:31;0.50;99.90
71084;DHT22;58741;52.672;13.548;2022-11-20T07:54:56;0.60;99.90
71084;DHT22;58741;52.672;13.548;2022-11-20T07:57:22;0.50;99.90
71084;DHT22;58741;52.672;13.548;2022-11-20T07:59:47;0.60;99.90
71084;DHT22;58741;52.672;13.548;2022-11-20T08:02:13;0.60;99.90
71084;DHT22;58741;52.672;13.548;2022-11-20T08:04:38;0.70;99.90
71084;DHT22;58741;52.672;13.548;2022-11-20T08:07:04;0.70;99.90
71084;DHT22;58741;52.672;13.548;2022-11-20T08:09:29;0.80;99.90
71084;DHT22;58741;52.672;13.548;2022-11-20T08:11:55;0.70;99.90
71084;DHT22;58741;52.672;13.548;2022-11-20T08:14:39;0.80;99.90
71084;DHT22;58741;52.672;13.548;2022-11-20T08:17:05;0.80;99.90
71084;DHT22;58741;52.672;13.548;2022-11-20T08:19:30;0.90;99.90
71084;DHT22;58741;52.672;13.548;2022-11-20T08:21:56;0.90;99.90
71084;DHT22;58741;52.672;13.548;2022-11-20T08:24:21;0.90;99.90
71084;DHT22;58741;52.672;13.548;2022-11-20T08:26:47;0.90;99.90
71084;DHT22;58741;52.672;13.548;2022-11-20T08:29:12;0.90;99.90
71084;DHT22;58741;52.672;13.548;2022-11-20T08:31:38;1.00;99.90
71084;DHT22;58741;52.672;13.548;2022-11-20T08:34:04;1.00;99.90
71084;DHT22;58741;52.672;13.548;2022-11-20T08:36:33;1.10;99.90
71084;DHT22;58741;52.672;13.548;2022-11-20T08:38:59;1.00;99.90
71084;DHT22;58741;52.672;13.548;2022-11-20T08:41:25;1.10;99.90
71084;DHT22;58741;52.672;13.548;2022-11-20T08:44:06;1.10;99.90
71084;DHT22;58741;52.672;13.548;2022-11-20T08:46:36;1.20;99.90
71084;DHT22;58741;52.672;13.548;2022-11-20T08:49:03;1.20;99.90
71084;DHT22;58741;52.672;13.548;2022-11-20T08:51:29;1.30;99.90
71084;DHT22;58741;52.672;13.548;2022-11-20T08:53:55;1.30;99.90
71084;DHT22;58741;52.672;13.548;2022-11-20T08:56:21;1.40;99.90
71084;DHT22;58741;52.672;13.548;2022-11-20T08:58:46;1.50;99.90
71084;DHT22;58741;52.672;13.548;2022-11-20T09:01:12;1.60;99.90
71084;DHT22;58741;52.672;13.548;2022-11-20T09:03:38;1.60;99.90
71084;DHT22;58741;52.672;13.548;2022-11-20T09:06:05;1.60;99.80
71084;DHT22;58741;52.672;13.548;2022-11-20T09:08:32;1.70;99.80
71084;DHT22;58741;52.672;13.548;2022-11-20T09:10:58;1.70;99.50
71084;DHT22;58741;52.672;13.548;2022-11-20T09:13:25;1.70;99.50
71084;DHT22;58741;52.672;13.548;2022-11-20T09:16:09;1.70;99.20
71084;DHT22;58741;52.672;13.548;2022-11-20T09:18:36;1.70;99.20
71084;DHT22;58741;52.672;13.548;2022-11-20T09:21:06;1.70;99.20
71084;DHT22;58741;52.672;13.548;2022-11-20T09:23:34;1.70;99.20
71084;DHT22;58741;52.672;13.548;2022-11-20T09:26:04;1.70;99.20
71084;DHT22;58741;52.672;13.548;2022-11-20T09:28:30;1.80;99.20
71084;DHT22;58741;52.672;13.548;2022-11-20T09:30:57;1.80;99.30
71084;DHT22;58741;52.672;13.548;2022-11-20T09:33:22;1.80;99.00
71084;DHT22;58741;52.672;13.548;2022-11-20T09:35:48;1.90;99.10
71084;DHT22;58741;52.672;13.548;2022-11-20T09:38:13;1.90;98.80
71084;DHT22;58741;52.672;13.548;2022-11-20T09:40:56;1.90;98.40
71084;DHT22;58741;52.672;13.548;2022-11-20T09:46:15;2.00;98.70
71084;DHT22;58741;52.672;13.548;2022-11-20T09:51:41;2.10;98.40
71084;DHT22;58741;52.672;13.548;2022-11-20T09:54:30;2.10;97.80
71084;DHT22;58741;52.672;13.548;2022-11-20T09:57:02;2.10;98.10
71084;DHT22;58741;52.672;13.548;2022-11-20T09:59:39;2.20;98.30
71084;DHT22;58741;52.672;13.548;2022-11-20T10:05:13;2.20;98.20
71084;DHT22;58741;52.672;13.548;2022-11-20T10:10:15;2.30;98.10
71084;DHT22;58741;52.672;13.548;2022-11-20T10:21:38;2.40;97.60
71084;DHT22;58741;52.672;13.548;2022-11-20T10:30:02;2.40;97.40
71084;DHT22;58741;52.672;13.548;2022-11-20T10:32:39;2.50;97.30
71084;DHT22;58741;52.672;13.548;2022-11-20T10:35:19;2.50;97.40
71084;DHT22;58741;52.672;13.548;2022-11-20T10:37:49;2.60;97.30
71084;DHT22;58741;52.672;13.548;2022-11-20T10:40:34;2.70;96.90
71084;DHT22;58741;52.672;13.548;2022-11-20T10:43:21;2.80;97.50
71084;DHT22;58741;52.672;13.548;2022-11-20T10:46:02;2.90;97.00
71084;DHT22;58741;52.672;13.548;2022-11-20T10:48:30;2.90;95.90
71084;DHT22;58741;52.672;13.548;2022-11-20T10:54:12;2.90;95.90
71084;DHT22;58741;52.672;13.548;2022-11-20T10:56:45;2.80;95.70
71084;DHT22;58741;52.672;13.548;2022-11-20T11:01:56;2.90;95.20
71084;DHT22;58741;52.672;13.548;2022-11-20T11:06:59;2.90;96.30
71084;DHT22;58741;52.672;13.548;2022-11-20T11:09:36;2.90;96.00
71084;DHT22;58741;52.672;13.548;2022-11-20T11:12:07;2.90;96.10
71084;DHT22;58741;52.672;13.548;2022-11-20T11:14:49;2.90;96.40
71084;DHT22;58741;52.672;13.548;2022-11-20T11:17:21;3.00;96.50
71084;DHT22;58741;52.672;13.548;2022-11-20T11:20:38;3.00;96.10
71084;DHT22;58741;52.672;13.548;2022-11-20T11:22:56;3.00;96.20
71084;DHT22;58741;52.672;13.548;2022-11-20T11:25:32;2.90;94.60
71084;DHT22;58741;52.672;13.548;2022-11-20T11:28:26;2.80;95.70
71084;DHT22;58741;52.672;13.548;2022-11-20T11:30:53;2.80;95.90
71084;DHT22;58741;52.672;13.548;2022-11-20T11:35:50;2.80;95.80
71084;DHT22;58741;52.672;13.548;2022-11-20T11:38:38;2.80;95.80
71084;DHT22;58741;52.672;13.548;2022-11-20T11:41:09;2.70;95.20
71084;DHT22;58741;52.672;13.548;2022-11-20T11:43:37;2.60;95.40
71084;DHT22;58741;52.672;13.548;2022-11-20T11:46:33;2.60;94.60
71084;DHT22;58741;52.672;13.548;2022-11-20T11:51:31;2.50;95.80
71084;DHT22;58741;52.672;13.548;2022-11-20T11:53:58;2.40;95.50
71084;DHT22;58741;52.672;13.548;2022-11-20T11:56:26;2.40;95.60
71084;DHT22;58741;52.672;13.548;2022-11-20T11:58:57;2.30;95.90
71084;DHT22;58741;52.672;13.548;2022-11-20T12:07:10;2.20;96.10
71084;DHT22;58741;52.672;13.548;2022-11-20T12:09:49;2.10;96.30
71084;DHT22;58741;52.672;13.548;2022-11-20T12:12:29;2.20;96.50
71084;DHT22;58741;52.672;13.548;2022-11-20T12:14:56;2.10;96.30
71084;DHT22;58741;52.672;13.548;2022-11-20T12:17:23;2.10;96.50
71084;DHT22;58741;52.672;13.548;2022-11-20T12:19:49;2.00;96.30
71084;DHT22;58741;52.672;13.548;2022-11-20T12:30:55;2.00;97.10
71084;DHT22;58741;52.672;13.548;2022-11-20T12:41:41;1.90;97.10
71084;DHT22;58741;52.672;13.548;2022-11-20T12:47:24;1.90;97.10
71084;DHT22;58741;52.672;13.548;2022-11-20T12:52:30;2.10;97.10
71084;DHT22;58741;52.672;13.548;2022-11-20T13:00:24;2.20;96.90
71084;DHT22;58741;52.672;13.548;2022-11-20T13:06:14;2.30;96.60
71084;DHT22;58741;52.672;13.548;2022-11-20T13:08:43;2.20;96.20
71084;DHT22;58741;52.672;13.548;2022-11-20T13:11:25;2.20;96.50
71084;DHT22;58741;52.672;13.548;2022-11-20T13:14:11;2.20;96.70
71084;DHT22;58741;52.672;13.548;2022-11-20T13:16:44;2.20;96.70
71084;DHT22;58741;52.672;13.548;2022-11-20T13:19:14;2.20;95.80
71084;DHT22;58741;52.672;13.548;2022-11-20T13:21:43;2.20;96.30
71084;DHT22;58741;52.672;13.548;2022-11-20T13:29:28;2.10;95.80
71084;DHT22;58741;52.672;13.548;2022-11-20T13:32:13;2.00;95.60
71084;DHT22;58741;52.672;13.548;2022-11-20T13:34:50;2.00;96.00
71084;DHT22;58741;52.672;13.548;2022-11-20T13:37:32;1.90;96.00
71084;DHT22;58741;52.672;13.548;2022-11-20T13:45:25;1.90;96.20
71084;DHT22;58741;52.672;13.548;2022-11-20T13:47:52;1.90;96.60
71084;DHT22;58741;52.672;13.548;2022-11-20T13:50:19;1.90;96.00
71084;DHT22;58741;52.672;13.548;2022-11-20T13:53:23;1.80;96.50
71084;DHT22;58741;52.672;13.548;2022-11-20T13:56:02;1.80;96.30
71084;DHT22;58741;52.672;13.548;2022-11-20T14:01:30;1.70;96.40
71084;DHT22;58741;52.672;13.548;2022-11-20T14:04:06;1.70;96.50
71084;DHT22;58741;52.672;13.548;2022-11-20T14:06:44;1.70;96.40
71084;DHT22;58741;52.672;13.548;2022-11-20T14:09:12;1.70;96.60
71084;DHT22;58741;52.672;13.548;2022-11-20T14:11:46;1.60;96.40
71084;DHT22;58741;52.672;13.548;2022-11-20T14:14:16;1.60;96.60
71084;DHT22;58741;52.672;13.548;2022-11-20T14:16:42;1.50;96.70
71084;DHT22;58741;52.672;13.548;2022-11-20T14:19:25;1.50;96.90
71084;DHT22;58741;52.672;13.548;2022-11-20T14:21:54;1.50;97.10
71084;DHT22;58741;52.672;13.548;2022-11-20T14:24:23;1.50;97.00
71084;DHT22;58741;52.672;13.548;2022-11-20T14:26:49;1.50;97.20
71084;DHT22;58741;52.672;13.548;2022-11-20T14:29:19;1.50;97.20
71084;DHT22;58741;52.672;13.548;2022-11-20T14:31:45;1.50;97.10
71084;DHT22;58741;52.672;13.548;2022-11-20T14:34:16;1.50;97.20
71084;DHT22;58741;52.672;13.548;2022-11-20T14:36:43;1.50;97.10
71084;DHT22;58741;52.672;13.548;2022-11-20T14:39:12;1.40;97.20
71084;DHT22;58741;52.672;13.548;2022-11-20T14:41:53;1.40;97.20
71084;DHT22;58741;52.672;13.548;2022-11-20T14:44:23;1.40;97.30
71084;DHT22;58741;52.672;13.548;2022-11-20T14:46:51;1.40;97.40
71084;DHT22;58741;52.672;13.548;2022-11-20T14:49:17;1.40;97.40
71084;DHT22;58741;52.672;13.548;2022-11-20T14:53:42;1.40;97.30
71084;DHT22;58741;52.672;13.548;2022-11-20T14:56:08;1.30;97.50
71084;DHT22;58741;52.672;13.548;2022-11-20T14:58:34;1.40;97.50
71084;DHT22;58741;52.672;13.548;2022-11-20T15:01:05;1.40;97.50
71084;DHT22;58741;52.672;13.548;2022-11-20T15:03:39;1.30;97.50
71084;DHT22;58741;52.672;13.548;2022-11-20T15:06:06;1.30;97.60
71084;DHT22;58741;52.672;13.548;2022-11-20T15:08:34;1.30;97.60
71084;DHT22;58741;52.672;13.548;2022-11-20T15:10:59;1.30;97.60
71084;DHT22;58741;52.672;13.548;2022-11-20T15:13:33;1.30;97.60
71084;DHT22;58741;52.672;13.548;2022-11-20T15:16:04;1.30;97.60
71084;DHT22;58741;52.672;13.548;2022-11-20T15:18:38;1.30;97.60
71084;DHT22;58741;52.672;13.548;2022-11-20T15:21:11;1.20;97.40
71084;DHT22;58741;52.672;13.548;2022-11-20T15:23:36;1.20;97.50
71084;DHT22;58741;52.672;13.548;2022-11-20T15:26:04;1.20;97.50
71084;DHT22;58741;52.672;13.548;2022-11-20T15:28:36;1.20;97.50
71084;DHT22;58741;52.672;13.548;2022-11-20T15:31:03;1.20;97.60
71084;DHT22;58741;52.672;13.548;2022-11-20T15:33:30;1.20;97.70
71084;DHT22;58741;52.672;13.548;2022-11-20T15:35:56;1.20;98.10
71084;DHT22;58741;52.672;13.548;2022-11-20T15:38:21;1.20;98.10
71084;DHT22;58741;52.672;13.548;2022-11-20T15:40:47;1.10;97.70
71084;DHT22;58741;52.672;13.548;2022-11-20T15:43:13;1.10;97.80
71084;DHT22;58741;52.672;13.548;2022-11-20T15:45:59;1.10;97.90
71084;DHT22;58741;52.672;13.548;2022-11-20T15:48:28;1.10;98.00
71084;DHT22;58741;52.672;13.548;2022-11-20T15:51:01;1.10;98.00
71084;DHT22;58741;52.672;13.548;2022-11-20T15:53:28;1.10;98.00
71084;DHT22;58741;52.672;13.548;2022-11-20T15:55:53;1.10;98.10
71084;DHT22;58741;52.672;13.548;2022-11-20T15:58:19;1.10;98.00
71084;DHT22;58741;52.672;13.548;2022-11-20T16:00:45;1.10;98.10
71084;DHT22;58741;52.672;13.548;2022-11-20T16:03:12;1.10;98.10
71084;DHT22;58741;52.672;13.548;2022-11-20T16:05:38;1.10;98.10
71084;DHT22;58741;52.672;13.548;2022-11-20T16:08:04;1.10;98.10
71084;DHT22;58741;52.672;13.548;2022-11-20T16:10:30;1.10;98.10
71084;DHT22;58741;52.672;13.548;2022-11-20T16:12:55;1.10;98.10
71084;DHT22;58741;52.672;13.548;2022-11-20T16:15:39;1.10;98.10
71084;DHT22;58741;52.672;13.548;2022-11-20T16:18:19;1.10;98.10
71084;DHT22;58741;52.672;13.548;2022-11-20T16:20:46;1.10;98.00
71084;DHT22;58741;52.672;13.548;2022-11-20T16:23:13;1.10;98.10
71084;DHT22;58741;52.672;13.548;2022-11-20T16:25:38;1.10;98.00
71084;DHT22;58741;52.672;13.548;2022-11-20T16:28:04;1.10;97.90
71084;DHT22;58741;52.672;13.548;2022-11-20T16:30:32;1.10;97.80
71084;DHT22;58741;52.672;13.548;2022-11-20T16:32:58;1.10;97.90
71084;DHT22;58741;52.672;13.548;2022-11-20T16:35:26;1.10;98.00
71084;DHT22;58741;52.672;13.548;2022-11-20T16:37:52;1.10;98.00
71084;DHT22;58741;52.672;13.548;2022-11-20T16:40:18;1.00;97.90
71084;DHT22;58741;52.672;13.548;2022-11-20T16:42:43;1.00;97.90
71084;DHT22;58741;52.672;13.548;2022-11-20T16:45:09;1.00;98.00
71084;DHT22;58741;52.672;13.548;2022-11-20T16:47:35;1.00;98.00
71084;DHT22;58741;52.672;13.548;2022-11-20T16:50:02;1.00;98.10
71084;DHT22;58741;52.672;13.548;2022-11-20T16:52:27;1.00;98.00
71084;DHT22;58741;52.672;13.548;2022-11-20T16:54:54;1.00;97.90
71084;DHT22;58741;52.672;13.548;2022-11-20T16:57:19;1.00;98.00
71084;DHT22;58741;52.672;13.548;2022-11-20T16:59:45;1.00;97.90
71084;DHT22;58741;52.672;13.548;2022-11-20T17:02:11;0.90;97.90
71084;DHT22;58741;52.672;13.548;2022-11-20T17:04:37;0.90;97.90
71084;DHT22;58741;52.672;13.548;2022-11-20T17:07:02;0.90;97.90
71084;DHT22;58741;52.672;13.548;2022-11-20T17:09:28;0.90;97.90
71084;DHT22;58741;52.672;13.548;2022-11-20T17:11:54;0.90;98.00
71084;DHT22;58741;52.672;13.548;2022-11-20T17:14:19;0.90;98.00
71084;DHT22;58741;52.672;13.548;2022-11-20T17:16:45;0.90;98.10